sensor_id;sensor_type;location;lat;lon;timestamp;P1;durP1;ratioP1;P2;durP2;ratioP2
59922;SDS011;45778;51.142;3.732;2023-06-05T00:01:35;8.40;;;2.85;;
59922;SDS011;45778;51.142;3.732;2023-06-05T00:04:02;6.63;;;2.40;;
59922;SDS011;45778;51.142;3.732;2023-06-05T00:06:28;7.50;;;2.65;;
59922;SDS011;45778;51.142;3.732;2023-06-05T00:08:55;6.43;;;2.63;;
59922;SDS011;45778;51.142;3.732;2023-06-05T00:11:21;5.95;;;2.97;;
59922;SDS011;45778;51.142;3.732;2023-06-05T00:13:47;7.57;;;2.58;;
59922;SDS011;45778;51.142;3.732;2023-06-05T00:16:12;4.45;;;2.83;;
59922;SDS011;45778;51.142;3.732;2023-06-05T00:18:38;7.32;;;2.90;;
59922;SDS011;45778;51.142;3.732;2023-06-05T00:21:04;3.20;;;2.65;;
59922;SDS011;45778;51.142;3.732;2023-06-05T00:23:29;5.88;;;2.58;;
59922;SDS011;45778;51.142;3.732;2023-06-05T00:25:55;8.85;;;3.03;;
59922;SDS011;45778;51.142;3.732;2023-06-05T00:28:22;6.00;;;2.72;;
59922;SDS011;45778;51.142;3.732;2023-06-05T00:30:49;7.15;;;2.67;;
59922;SDS011;45778;51.142;3.732;2023-06-05T00:33:14;5.85;;;3.20;;
59922;SDS011;45778;51.142;3.732;2023-06-05T00:35:40;3.75;;;2.80;;
59922;SDS011;45778;51.142;3.732;2023-06-05T00:38:06;4.88;;;2.88;;
59922;SDS011;45778;51.142;3.732;2023-06-05T00:40:32;7.45;;;2.97;;
59922;SDS011;45778;51.142;3.732;2023-06-05T00:42:58;5.18;;;2.95;;
59922;SDS011;45778;51.142;3.732;2023-06-05T00:45:23;6.65;;;3.30;;
59922;SDS011;45778;51.142;3.732;2023-06-05T00:47:49;8.95;;;3.33;;
59922;SDS011;45778;51.142;3.732;2023-06-05T00:50:15;5.80;;;3.30;;
59922;SDS011;45778;51.142;3.732;2023-06-05T00:52:42;6.00;;;3.58;;
59922;SDS011;45778;51.142;3.732;2023-06-05T00:55:09;4.93;;;3.10;;
59922;SDS011;45778;51.142;3.732;2023-06-05T00:57:36;8.68;;;3.47;;
59922;SDS011;45778;51.142;3.732;2023-06-05T01:00:04;4.35;;;2.83;;
59922;SDS011;45778;51.142;3.732;2023-06-05T01:02:32;5.90;;;3.72;;
59922;SDS011;45778;51.142;3.732;2023-06-05T01:04:59;8.43;;;3.22;;
59922;SDS011;45778;51.142;3.732;2023-06-05T01:07:25;5.88;;;4.15;;
59922;SDS011;45778;51.142;3.732;2023-06-05T01:09:53;10.60;;;4.25;;
59922;SDS011;45778;51.142;3.732;2023-06-05T01:15:13;6.60;;;4.35;;
59922;SDS011;45778;51.142;3.732;2023-06-05T01:17:40;6.03;;;4.60;;
59922;SDS011;45778;51.142;3.732;2023-06-05T01:20:12;11.63;;;5.28;;
59922;SDS011;45778;51.142;3.732;2023-06-05T01:22:38;13.57;;;6.00;;
59922;SDS011;45778;51.142;3.732;2023-06-05T01:25:07;8.50;;;5.60;;
59922;SDS011;45778;51.142;3.732;2023-06-05T01:27:48;10.43;;;6.15;;
59922;SDS011;45778;51.142;3.732;2023-06-05T01:33:02;7.95;;;5.20;;
59922;SDS011;45778;51.142;3.732;2023-06-05T01:35:38;11.00;;;6.25;;
59922;SDS011;45778;51.142;3.732;2023-06-05T01:38:06;9.15;;;5.93;;
59922;SDS011;45778;51.142;3.732;2023-06-05T01:40:34;12.18;;;6.15;;
59922;SDS011;45778;51.142;3.732;2023-06-05T01:43:01;9.40;;;5.25;;
59922;SDS011;45778;51.142;3.732;2023-06-05T01:45:28;7.70;;;5.28;;
59922;SDS011;45778;51.142;3.732;2023-06-05T01:47:55;7.80;;;5.10;;
59922;SDS011;45778;51.142;3.732;2023-06-05T01:50:22;8.70;;;5.95;;
59922;SDS011;45778;51.142;3.732;2023-06-05T01:52:48;9.85;;;6.43;;
59922;SDS011;45778;51.142;3.732;2023-06-05T01:55:20;11.48;;;6.00;;
59922;SDS011;45778;51.142;3.732;2023-06-05T01:57:51;11.25;;;6.35;;
59922;SDS011;45778;51.142;3.732;2023-06-05T02:00:18;11.85;;;6.43;;
59922;SDS011;45778;51.142;3.732;2023-06-05T02:02:44;17.50;;;7.45;;
59922;SDS011;45778;51.142;3.732;2023-06-05T02:05:10;10.30;;;6.55;;
59922;SDS011;45778;51.142;3.732;2023-06-05T02:07:40;11.02;;;6.50;;
59922;SDS011;45778;51.142;3.732;2023-06-05T02:10:23;13.40;;;6.45;;
59922;SDS011;45778;51.142;3.732;2023-06-05T02:12:49;10.70;;;6.53;;
59922;SDS011;45778;51.142;3.732;2023-06-05T02:15:15;12.77;;;6.40;;
59922;SDS011;45778;51.142;3.732;2023-06-05T02:17:41;9.00;;;6.22;;
59922;SDS011;45778;51.142;3.732;2023-06-05T02:20:13;13.32;;;6.68;;
59922;SDS011;45778;51.142;3.732;2023-06-05T02:22:40;10.88;;;7.50;;
59922;SDS011;45778;51.142;3.732;2023-06-05T02:25:06;12.15;;;6.55;;
59922;SDS011;45778;51.142;3.732;2023-06-05T02:27:33;9.20;;;6.50;;
59922;SDS011;45778;51.142;3.732;2023-06-05T02:29:58;9.80;;;6.80;;
59922;SDS011;45778;51.142;3.732;2023-06-05T02:32:24;10.32;;;6.07;;
59922;SDS011;45778;51.142;3.732;2023-06-05T02:34:51;9.55;;;6.97;;
59922;SDS011;45778;51.142;3.732;2023-06-05T02:37:17;12.50;;;7.50;;
59922;SDS011;45778;51.142;3.732;2023-06-05T02:39:43;14.23;;;6.97;;
59922;SDS011;45778;51.142;3.732;2023-06-05T02:42:09;11.00;;;6.50;;
59922;SDS011;45778;51.142;3.732;2023-06-05T02:44:37;13.18;;;7.57;;
59922;SDS011;45778;51.142;3.732;2023-06-05T02:47:03;14.05;;;7.05;;
59922;SDS011;45778;51.142;3.732;2023-06-05T02:49:29;11.82;;;7.65;;
59922;SDS011;45778;51.142;3.732;2023-06-05T02:51:54;12.45;;;7.15;;
59922;SDS011;45778;51.142;3.732;2023-06-05T02:54:20;15.02;;;7.50;;
59922;SDS011;45778;51.142;3.732;2023-06-05T02:56:46;14.07;;;7.32;;
59922;SDS011;45778;51.142;3.732;2023-06-05T02:59:12;14.98;;;7.47;;
59922;SDS011;45778;51.142;3.732;2023-06-05T03:01:39;13.25;;;8.38;;
59922;SDS011;45778;51.142;3.732;2023-06-05T03:04:11;11.45;;;7.32;;
59922;SDS011;45778;51.142;3.732;2023-06-05T03:06:38;10.73;;;7.00;;
59922;SDS011;45778;51.142;3.732;2023-06-05T03:09:03;13.30;;;6.82;;
59922;SDS011;45778;51.142;3.732;2023-06-05T03:11:29;14.95;;;8.02;;
59922;SDS011;45778;51.142;3.732;2023-06-05T03:13:55;12.98;;;7.00;;
59922;SDS011;45778;51.142;3.732;2023-06-05T03:16:21;12.45;;;7.38;;
59922;SDS011;45778;51.142;3.732;2023-06-05T03:18:48;13.10;;;7.97;;
59922;SDS011;45778;51.142;3.732;2023-06-05T03:21:13;15.13;;;8.57;;
59922;SDS011;45778;51.142;3.732;2023-06-05T03:23:39;11.70;;;7.75;;
59922;SDS011;45778;51.142;3.732;2023-06-05T03:26:05;14.07;;;7.82;;
59922;SDS011;45778;51.142;3.732;2023-06-05T03:28:31;13.70;;;7.82;;
59922;SDS011;45778;51.142;3.732;2023-06-05T03:30:58;12.25;;;7.88;;
59922;SDS011;45778;51.142;3.732;2023-06-05T03:33:24;12.90;;;7.80;;
59922;SDS011;45778;51.142;3.732;2023-06-05T03:35:50;12.50;;;8.57;;
59922;SDS011;45778;51.142;3.732;2023-06-05T03:38:17;15.00;;;7.68;;
59922;SDS011;45778;51.142;3.732;2023-06-05T03:40:43;12.90;;;7.40;;
59922;SDS011;45778;51.142;3.732;2023-06-05T03:43:09;14.20;;;7.85;;
59922;SDS011;45778;51.142;3.732;2023-06-05T03:45:36;12.32;;;7.50;;
59922;SDS011;45778;51.142;3.732;2023-06-05T03:48:04;13.25;;;7.53;;
59922;SDS011;45778;51.142;3.732;2023-06-05T03:50:30;15.38;;;8.52;;
59922;SDS011;45778;51.142;3.732;2023-06-05T03:52:59;14.90;;;8.75;;
59922;SDS011;45778;51.142;3.732;2023-06-05T03:55:31;15.43;;;7.82;;
59922;SDS011;45778;51.142;3.732;2023-06-05T03:58:14;14.95;;;7.80;;
59922;SDS011;45778;51.142;3.732;2023-06-05T04:00:43;13.43;;;8.07;;
59922;SDS011;45778;51.142;3.732;2023-06-05T04:03:11;16.35;;;8.30;;
59922;SDS011;45778;51.142;3.732;2023-06-05T04:05:38;13.18;;;8.20;;
59922;SDS011;45778;51.142;3.732;2023-06-05T04:08:05;13.68;;;8.48;;
59922;SDS011;45778;51.142;3.732;2023-06-05T04:10:31;15.80;;;9.13;;
59922;SDS011;45778;51.142;3.732;2023-06-05T04:12:58;18.30;;;9.10;;
59922;SDS011;45778;51.142;3.732;2023-06-05T04:15:23;14.30;;;8.55;;
59922;SDS011;45778;51.142;3.732;2023-06-05T04:17:49;12.65;;;8.32;;
59922;SDS011;45778;51.142;3.732;2023-06-05T04:20:15;15.50;;;9.65;;
59922;SDS011;45778;51.142;3.732;2023-06-05T04:22:41;16.73;;;8.88;;
59922;SDS011;45778;51.142;3.732;2023-06-05T04:25:08;12.57;;;8.55;;
59922;SDS011;45778;51.142;3.732;2023-06-05T04:27:35;14.77;;;9.30;;
59922;SDS011;45778;51.142;3.732;2023-06-05T04:30:06;20.60;;;8.90;;
59922;SDS011;45778;51.142;3.732;2023-06-05T04:32:33;15.13;;;8.02;;
59922;SDS011;45778;51.142;3.732;2023-06-05T04:35:02;15.02;;;7.20;;
59922;SDS011;45778;51.142;3.732;2023-06-05T04:37:28;10.98;;;7.70;;
59922;SDS011;45778;51.142;3.732;2023-06-05T04:39:54;13.63;;;6.93;;
59922;SDS011;45778;51.142;3.732;2023-06-05T04:42:20;11.68;;;7.10;;
59922;SDS011;45778;51.142;3.732;2023-06-05T04:44:59;15.38;;;7.65;;
59922;SDS011;45778;51.142;3.732;2023-06-05T04:47:28;10.80;;;7.05;;
59922;SDS011;45778;51.142;3.732;2023-06-05T04:49:57;11.85;;;6.97;;
59922;SDS011;45778;51.142;3.732;2023-06-05T04:52:23;9.43;;;6.03;;
59922;SDS011;45778;51.142;3.732;2023-06-05T04:54:49;9.68;;;5.72;;
59922;SDS011;45778;51.142;3.732;2023-06-05T04:57:16;8.55;;;5.38;;
59922;SDS011;45778;51.142;3.732;2023-06-05T04:59:43;9.60;;;5.63;;
59922;SDS011;45778;51.142;3.732;2023-06-05T05:02:10;9.77;;;5.43;;
59922;SDS011;45778;51.142;3.732;2023-06-05T05:04:36;10.23;;;6.32;;
59922;SDS011;45778;51.142;3.732;2023-06-05T05:07:02;8.02;;;5.38;;
59922;SDS011;45778;51.142;3.732;2023-06-05T05:09:29;10.40;;;5.97;;
59922;SDS011;45778;51.142;3.732;2023-06-05T05:11:56;10.10;;;5.53;;
59922;SDS011;45778;51.142;3.732;2023-06-05T05:14:23;7.95;;;5.05;;
59922;SDS011;45778;51.142;3.732;2023-06-05T05:16:51;9.57;;;5.13;;
59922;SDS011;45778;51.142;3.732;2023-06-05T05:19:16;8.05;;;5.40;;
59922;SDS011;45778;51.142;3.732;2023-06-05T05:21:42;7.80;;;5.50;;
59922;SDS011;45778;51.142;3.732;2023-06-05T05:24:08;7.38;;;5.88;;
59922;SDS011;45778;51.142;3.732;2023-06-05T05:26:34;8.05;;;5.38;;
59922;SDS011;45778;51.142;3.732;2023-06-05T05:28:59;8.82;;;4.70;;
59922;SDS011;45778;51.142;3.732;2023-06-05T05:31:25;7.55;;;5.25;;
59922;SDS011;45778;51.142;3.732;2023-06-05T05:33:51;7.65;;;5.20;;
59922;SDS011;45778;51.142;3.732;2023-06-05T05:36:16;8.10;;;5.18;;
59922;SDS011;45778;51.142;3.732;2023-06-05T05:38:43;7.95;;;4.90;;
59922;SDS011;45778;51.142;3.732;2023-06-05T05:41:09;7.68;;;5.45;;
59922;SDS011;45778;51.142;3.732;2023-06-05T05:43:34;8.45;;;5.07;;
59922;SDS011;45778;51.142;3.732;2023-06-05T05:46:00;5.97;;;4.95;;
59922;SDS011;45778;51.142;3.732;2023-06-05T05:48:26;7.80;;;5.22;;
59922;SDS011;45778;51.142;3.732;2023-06-05T05:50:51;9.32;;;5.47;;
59922;SDS011;45778;51.142;3.732;2023-06-05T05:53:17;9.70;;;4.93;;
59922;SDS011;45778;51.142;3.732;2023-06-05T05:55:43;6.95;;;4.55;;
59922;SDS011;45778;51.142;3.732;2023-06-05T05:58:08;8.15;;;5.15;;
59922;SDS011;45778;51.142;3.732;2023-06-05T06:00:34;7.32;;;4.85;;
59922;SDS011;45778;51.142;3.732;2023-06-05T06:03:00;7.30;;;5.38;;
59922;SDS011;45778;51.142;3.732;2023-06-05T06:05:26;9.20;;;5.30;;
59922;SDS011;45778;51.142;3.732;2023-06-05T06:07:52;7.88;;;5.15;;
59922;SDS011;45778;51.142;3.732;2023-06-05T06:10:17;7.05;;;4.72;;
59922;SDS011;45778;51.142;3.732;2023-06-05T06:12:44;9.27;;;5.55;;
59922;SDS011;45778;51.142;3.732;2023-06-05T06:15:10;6.75;;;5.72;;
59922;SDS011;45778;51.142;3.732;2023-06-05T06:17:36;10.02;;;5.65;;
59922;SDS011;45778;51.142;3.732;2023-06-05T06:20:03;8.13;;;5.20;;
59922;SDS011;45778;51.142;3.732;2023-06-05T06:22:30;9.90;;;4.88;;
59922;SDS011;45778;51.142;3.732;2023-06-05T06:24:56;7.45;;;5.20;;
59922;SDS011;45778;51.142;3.732;2023-06-05T06:27:22;7.10;;;4.95;;
59922;SDS011;45778;51.142;3.732;2023-06-05T06:29:48;13.07;;;4.78;;
59922;SDS011;45778;51.142;3.732;2023-06-05T06:32:17;5.53;;;4.35;;
59922;SDS011;45778;51.142;3.732;2023-06-05T06:34:43;6.88;;;5.05;;
59922;SDS011;45778;51.142;3.732;2023-06-05T06:37:09;7.82;;;5.57;;
59922;SDS011;45778;51.142;3.732;2023-06-05T06:39:42;7.00;;;5.05;;
59922;SDS011;45778;51.142;3.732;2023-06-05T06:42:08;8.85;;;5.20;;
59922;SDS011;45778;51.142;3.732;2023-06-05T06:44:35;7.68;;;4.60;;
59922;SDS011;45778;51.142;3.732;2023-06-05T06:47:04;7.35;;;4.32;;
59922;SDS011;45778;51.142;3.732;2023-06-05T06:49:30;7.20;;;4.75;;
59922;SDS011;45778;51.142;3.732;2023-06-05T06:51:56;5.38;;;4.20;;
59922;SDS011;45778;51.142;3.732;2023-06-05T06:54:22;7.97;;;4.45;;
59922;SDS011;45778;51.142;3.732;2023-06-05T06:56:48;4.88;;;3.55;;
59922;SDS011;45778;51.142;3.732;2023-06-05T06:59:16;7.05;;;4.72;;
59922;SDS011;45778;51.142;3.732;2023-06-05T07:01:43;6.00;;;4.25;;
59922;SDS011;45778;51.142;3.732;2023-06-05T07:04:15;5.65;;;4.25;;
59922;SDS011;45778;51.142;3.732;2023-06-05T07:06:45;9.65;;;4.65;;
59922;SDS011;45778;51.142;3.732;2023-06-05T07:09:11;9.30;;;5.85;;
59922;SDS011;45778;51.142;3.732;2023-06-05T07:11:37;5.55;;;4.25;;
59922;SDS011;45778;51.142;3.732;2023-06-05T07:14:03;7.75;;;4.55;;
59922;SDS011;45778;51.142;3.732;2023-06-05T07:16:29;6.53;;;4.18;;
59922;SDS011;45778;51.142;3.732;2023-06-05T07:18:54;9.80;;;5.95;;
59922;SDS011;45778;51.142;3.732;2023-06-05T07:21:21;8.60;;;6.05;;
59922;SDS011;45778;51.142;3.732;2023-06-05T07:23:47;7.00;;;4.93;;
59922;SDS011;45778;51.142;3.732;2023-06-05T07:26:19;8.23;;;5.50;;
59922;SDS011;45778;51.142;3.732;2023-06-05T07:28:46;9.18;;;4.75;;
59922;SDS011;45778;51.142;3.732;2023-06-05T07:31:13;8.30;;;4.82;;
59922;SDS011;45778;51.142;3.732;2023-06-05T07:33:39;7.30;;;4.72;;
59922;SDS011;45778;51.142;3.732;2023-06-05T07:36:06;7.60;;;5.22;;
59922;SDS011;45778;51.142;3.732;2023-06-05T07:38:32;9.25;;;5.55;;
59922;SDS011;45778;51.142;3.732;2023-06-05T07:40:58;5.97;;;4.28;;
59922;SDS011;45778;51.142;3.732;2023-06-05T07:43:26;7.18;;;4.60;;
59922;SDS011;45778;51.142;3.732;2023-06-05T07:45:52;11.15;;;4.60;;
59922;SDS011;45778;51.142;3.732;2023-06-05T07:48:18;8.10;;;5.03;;
59922;SDS011;45778;51.142;3.732;2023-06-05T07:50:44;6.63;;;4.60;;
59922;SDS011;45778;51.142;3.732;2023-06-05T07:53:10;9.05;;;5.57;;
59922;SDS011;45778;51.142;3.732;2023-06-05T07:55:36;8.07;;;4.65;;
59922;SDS011;45778;51.142;3.732;2023-06-05T07:58:01;8.52;;;4.82;;
59922;SDS011;45778;51.142;3.732;2023-06-05T08:00:27;12.27;;;4.60;;
59922;SDS011;45778;51.142;3.732;2023-06-05T08:02:53;8.52;;;5.13;;
59922;SDS011;45778;51.142;3.732;2023-06-05T08:05:19;8.95;;;5.60;;
59922;SDS011;45778;51.142;3.732;2023-06-05T08:07:45;6.95;;;4.15;;
59922;SDS011;45778;51.142;3.732;2023-06-05T08:10:12;6.65;;;4.72;;
59922;SDS011;45778;51.142;3.732;2023-06-05T08:12:37;6.22;;;4.40;;
59922;SDS011;45778;51.142;3.732;2023-06-05T08:15:04;7.45;;;4.93;;
59922;SDS011;45778;51.142;3.732;2023-06-05T08:17:31;7.55;;;4.88;;
59922;SDS011;45778;51.142;3.732;2023-06-05T08:19:57;6.43;;;4.28;;
59922;SDS011;45778;51.142;3.732;2023-06-05T08:22:22;6.45;;;5.03;;
59922;SDS011;45778;51.142;3.732;2023-06-05T08:24:48;7.15;;;3.88;;
59922;SDS011;45778;51.142;3.732;2023-06-05T08:27:15;6.00;;;3.58;;
59922;SDS011;45778;51.142;3.732;2023-06-05T08:29:42;6.45;;;4.45;;
59922;SDS011;45778;51.142;3.732;2023-06-05T08:32:08;8.68;;;4.53;;
59922;SDS011;45778;51.142;3.732;2023-06-05T08:34:34;7.63;;;5.00;;
59922;SDS011;45778;51.142;3.732;2023-06-05T08:37:00;5.50;;;4.13;;
59922;SDS011;45778;51.142;3.732;2023-06-05T08:39:27;5.57;;;4.50;;
59922;SDS011;45778;51.142;3.732;2023-06-05T08:41:57;5.78;;;4.38;;
59922;SDS011;45778;51.142;3.732;2023-06-05T08:44:25;10.23;;;6.47;;
59922;SDS011;45778;51.142;3.732;2023-06-05T08:46:52;9.48;;;5.90;;
59922;SDS011;45778;51.142;3.732;2023-06-05T08:49:25;8.15;;;4.95;;
59922;SDS011;45778;51.142;3.732;2023-06-05T08:51:54;8.55;;;5.32;;
59922;SDS011;45778;51.142;3.732;2023-06-05T08:54:32;6.88;;;5.22;;
59922;SDS011;45778;51.142;3.732;2023-06-05T08:57:01;7.13;;;4.75;;
59922;SDS011;45778;51.142;3.732;2023-06-05T08:59:29;5.60;;;3.85;;
59922;SDS011;45778;51.142;3.732;2023-06-05T09:01:54;7.00;;;4.85;;
59922;SDS011;45778;51.142;3.732;2023-06-05T09:04:20;8.40;;;5.68;;
59922;SDS011;45778;51.142;3.732;2023-06-05T09:06:46;11.95;;;6.78;;
59922;SDS011;45778;51.142;3.732;2023-06-05T09:09:13;8.02;;;5.88;;
59922;SDS011;45778;51.142;3.732;2023-06-05T09:11:40;7.10;;;5.28;;
59922;SDS011;45778;51.142;3.732;2023-06-05T09:14:05;13.27;;;6.10;;
59922;SDS011;45778;51.142;3.732;2023-06-05T09:16:35;10.77;;;5.53;;
59922;SDS011;45778;51.142;3.732;2023-06-05T09:19:05;9.20;;;4.88;;
59922;SDS011;45778;51.142;3.732;2023-06-05T09:21:31;6.05;;;4.82;;
59922;SDS011;45778;51.142;3.732;2023-06-05T09:24:16;7.60;;;4.60;;
59922;SDS011;45778;51.142;3.732;2023-06-05T09:26:47;7.88;;;5.35;;
59922;SDS011;45778;51.142;3.732;2023-06-05T09:29:32;8.70;;;4.93;;
59922;SDS011;45778;51.142;3.732;2023-06-05T09:31:59;7.65;;;5.35;;
59922;SDS011;45778;51.142;3.732;2023-06-05T09:37:04;8.55;;;4.75;;
59922;SDS011;45778;51.142;3.732;2023-06-05T09:39:32;7.68;;;5.15;;
59922;SDS011;45778;51.142;3.732;2023-06-05T09:41:59;10.68;;;5.53;;
59922;SDS011;45778;51.142;3.732;2023-06-05T09:44:26;8.15;;;5.10;;
59922;SDS011;45778;51.142;3.732;2023-06-05T09:46:54;8.68;;;5.95;;
59922;SDS011;45778;51.142;3.732;2023-06-05T09:49:24;12.85;;;6.82;;
59922;SDS011;45778;51.142;3.732;2023-06-05T09:51:58;7.28;;;5.07;;
59922;SDS011;45778;51.142;3.732;2023-06-05T09:54:26;8.88;;;5.20;;
59922;SDS011;45778;51.142;3.732;2023-06-05T09:56:56;9.32;;;5.60;;
59922;SDS011;45778;51.142;3.732;2023-06-05T09:59:23;11.95;;;6.25;;
59922;SDS011;45778;51.142;3.732;2023-06-05T10:01:55;9.20;;;5.45;;
59922;SDS011;45778;51.142;3.732;2023-06-05T10:04:22;7.97;;;5.32;;
59922;SDS011;45778;51.142;3.732;2023-06-05T10:06:50;8.48;;;5.70;;
59922;SDS011;45778;51.142;3.732;2023-06-05T10:09:17;7.50;;;5.47;;
59922;SDS011;45778;51.142;3.732;2023-06-05T10:11:43;9.38;;;5.78;;
59922;SDS011;45778;51.142;3.732;2023-06-05T10:14:13;9.48;;;6.35;;
59922;SDS011;45778;51.142;3.732;2023-06-05T10:16:40;10.38;;;5.45;;
59922;SDS011;45778;51.142;3.732;2023-06-05T10:19:07;7.55;;;5.28;;
59922;SDS011;45778;51.142;3.732;2023-06-05T10:21:34;9.32;;;5.80;;
59922;SDS011;45778;51.142;3.732;2023-06-05T10:24:09;9.30;;;6.18;;
59922;SDS011;45778;51.142;3.732;2023-06-05T10:35:08;7.75;;;5.82;;
59922;SDS011;45778;51.142;3.732;2023-06-05T10:40:37;8.10;;;6.78;;
59922;SDS011;45778;51.142;3.732;2023-06-05T10:46:27;7.78;;;5.63;;
59922;SDS011;45778;51.142;3.732;2023-06-05T10:49:07;6.05;;;5.15;;
59922;SDS011;45778;51.142;3.732;2023-06-05T10:51:48;10.95;;;5.90;;
59922;SDS011;45778;51.142;3.732;2023-06-05T10:59:29;8.90;;;5.85;;
59922;SDS011;45778;51.142;3.732;2023-06-05T11:07:21;9.98;;;6.43;;
59922;SDS011;45778;51.142;3.732;2023-06-05T11:15:08;8.73;;;5.97;;
59922;SDS011;45778;51.142;3.732;2023-06-05T11:17:35;8.05;;;5.13;;
59922;SDS011;45778;51.142;3.732;2023-06-05T11:27:46;9.38;;;5.95;;
59922;SDS011;45778;51.142;3.732;2023-06-05T11:32:38;9.13;;;5.85;;
59922;SDS011;45778;51.142;3.732;2023-06-05T11:35:05;7.80;;;6.13;;
59922;SDS011;45778;51.142;3.732;2023-06-05T11:37:30;8.70;;;5.72;;
59922;SDS011;45778;51.142;3.732;2023-06-05T11:39:59;10.15;;;6.55;;
59922;SDS011;45778;51.142;3.732;2023-06-05T11:42:43;7.53;;;5.88;;
59922;SDS011;45778;51.142;3.732;2023-06-05T11:45:12;7.20;;;6.35;;
59922;SDS011;45778;51.142;3.732;2023-06-05T11:47:39;6.85;;;5.60;;
59922;SDS011;45778;51.142;3.732;2023-06-05T11:50:12;8.73;;;5.82;;
59922;SDS011;45778;51.142;3.732;2023-06-05T11:52:39;6.47;;;5.40;;
59922;SDS011;45778;51.142;3.732;2023-06-05T11:55:12;9.35;;;6.07;;
59922;SDS011;45778;51.142;3.732;2023-06-05T11:57:44;9.02;;;6.10;;
59922;SDS011;45778;51.142;3.732;2023-06-05T12:00:12;7.95;;;6.15;;
59922;SDS011;45778;51.142;3.732;2023-06-05T12:02:38;8.60;;;6.53;;
59922;SDS011;45778;51.142;3.732;2023-06-05T12:05:06;10.85;;;5.72;;
59922;SDS011;45778;51.142;3.732;2023-06-05T12:07:33;10.90;;;5.30;;
59922;SDS011;45778;51.142;3.732;2023-06-05T12:10:05;6.70;;;4.95;;
59922;SDS011;45778;51.142;3.732;2023-06-05T12:12:33;9.43;;;5.55;;
59922;SDS011;45778;51.142;3.732;2023-06-05T12:15:14;7.85;;;5.93;;
59922;SDS011;45778;51.142;3.732;2023-06-05T12:17:48;5.70;;;5.10;;
59922;SDS011;45778;51.142;3.732;2023-06-05T12:20:21;9.38;;;6.68;;
59922;SDS011;45778;51.142;3.732;2023-06-05T12:22:47;9.73;;;6.10;;
59922;SDS011;45778;51.142;3.732;2023-06-05T12:27:42;8.65;;;5.25;;
59922;SDS011;45778;51.142;3.732;2023-06-05T12:30:10;7.38;;;4.80;;
59922;SDS011;45778;51.142;3.732;2023-06-05T12:32:36;7.38;;;5.00;;
59922;SDS011;45778;51.142;3.732;2023-06-05T12:35:04;8.55;;;6.25;;
59922;SDS011;45778;51.142;3.732;2023-06-05T12:37:32;7.35;;;5.63;;
59922;SDS011;45778;51.142;3.732;2023-06-05T12:40:02;8.50;;;5.60;;
59922;SDS011;45778;51.142;3.732;2023-06-05T12:42:35;5.88;;;4.57;;
59922;SDS011;45778;51.142;3.732;2023-06-05T12:45:02;8.88;;;5.40;;
59922;SDS011;45778;51.142;3.732;2023-06-05T12:47:28;6.18;;;4.25;;
59922;SDS011;45778;51.142;3.732;2023-06-05T12:49:54;6.25;;;4.75;;
59922;SDS011;45778;51.142;3.732;2023-06-05T12:52:21;8.65;;;5.03;;
59922;SDS011;45778;51.142;3.732;2023-06-05T12:54:50;7.43;;;4.97;;
59922;SDS011;45778;51.142;3.732;2023-06-05T12:57:20;7.68;;;5.32;;
59922;SDS011;45778;51.142;3.732;2023-06-05T12:59:46;9.82;;;5.72;;
59922;SDS011;45778;51.142;3.732;2023-06-05T13:02:12;8.55;;;4.90;;
59922;SDS011;45778;51.142;3.732;2023-06-05T13:04:38;11.25;;;5.18;;
59922;SDS011;45778;51.142;3.732;2023-06-05T13:07:04;8.43;;;5.20;;
59922;SDS011;45778;51.142;3.732;2023-06-05T13:09:31;5.53;;;4.45;;
59922;SDS011;45778;51.142;3.732;2023-06-05T13:11:57;6.63;;;5.28;;
59922;SDS011;45778;51.142;3.732;2023-06-05T13:14:24;8.82;;;5.60;;
59922;SDS011;45778;51.142;3.732;2023-06-05T13:16:51;9.75;;;5.95;;
59922;SDS011;45778;51.142;3.732;2023-06-05T13:19:16;6.50;;;5.65;;
59922;SDS011;45778;51.142;3.732;2023-06-05T13:21:42;7.45;;;5.00;;
59922;SDS011;45778;51.142;3.732;2023-06-05T13:24:07;6.30;;;5.63;;
59922;SDS011;45778;51.142;3.732;2023-06-05T13:26:33;10.32;;;5.15;;
59922;SDS011;45778;51.142;3.732;2023-06-05T13:28:59;7.30;;;5.10;;
59922;SDS011;45778;51.142;3.732;2023-06-05T13:31:25;10.95;;;5.18;;
59922;SDS011;45778;51.142;3.732;2023-06-05T13:33:50;27.10;;;7.07;;
59922;SDS011;45778;51.142;3.732;2023-06-05T13:36:16;8.43;;;5.40;;
59922;SDS011;45778;51.142;3.732;2023-06-05T13:38:42;6.50;;;5.10;;
59922;SDS011;45778;51.142;3.732;2023-06-05T13:41:07;6.10;;;5.05;;
59922;SDS011;45778;51.142;3.732;2023-06-05T13:43:33;7.63;;;5.10;;
59922;SDS011;45778;51.142;3.732;2023-06-05T13:45:59;8.43;;;5.47;;
59922;SDS011;45778;51.142;3.732;2023-06-05T13:48:26;6.78;;;5.32;;
59922;SDS011;45778;51.142;3.732;2023-06-05T13:50:52;7.93;;;4.97;;
59922;SDS011;45778;51.142;3.732;2023-06-05T13:53:17;5.90;;;4.53;;
59922;SDS011;45778;51.142;3.732;2023-06-05T13:55:43;9.80;;;5.57;;
59922;SDS011;45778;51.142;3.732;2023-06-05T13:58:09;8.88;;;4.53;;
59922;SDS011;45778;51.142;3.732;2023-06-05T14:00:36;9.95;;;4.70;;
59922;SDS011;45778;51.142;3.732;2023-06-05T14:03:02;9.20;;;3.88;;
59922;SDS011;45778;51.142;3.732;2023-06-05T14:05:28;10.10;;;4.55;;
59922;SDS011;45778;51.142;3.732;2023-06-05T14:07:54;6.75;;;4.20;;
59922;SDS011;45778;51.142;3.732;2023-06-05T14:10:22;11.35;;;4.43;;
59922;SDS011;45778;51.142;3.732;2023-06-05T14:12:49;7.50;;;4.53;;
59922;SDS011;45778;51.142;3.732;2023-06-05T14:15:15;9.43;;;4.35;;
59922;SDS011;45778;51.142;3.732;2023-06-05T14:17:43;5.10;;;3.95;;
59922;SDS011;45778;51.142;3.732;2023-06-05T14:20:10;11.80;;;5.03;;
59922;SDS011;45778;51.142;3.732;2023-06-05T14:22:36;9.40;;;3.88;;
59922;SDS011;45778;51.142;3.732;2023-06-05T14:25:02;5.53;;;4.22;;
59922;SDS011;45778;51.142;3.732;2023-06-05T14:27:28;6.05;;;4.30;;
59922;SDS011;45778;51.142;3.732;2023-06-05T14:29:54;6.97;;;3.75;;
59922;SDS011;45778;51.142;3.732;2023-06-05T14:32:19;7.35;;;4.10;;
59922;SDS011;45778;51.142;3.732;2023-06-05T14:34:45;5.68;;;3.83;;
59922;SDS011;45778;51.142;3.732;2023-06-05T14:37:11;6.78;;;3.40;;
59922;SDS011;45778;51.142;3.732;2023-06-05T14:39:36;5.53;;;3.53;;
59922;SDS011;45778;51.142;3.732;2023-06-05T14:42:02;5.75;;;3.83;;
59922;SDS011;45778;51.142;3.732;2023-06-05T14:44:28;7.50;;;4.28;;
59922;SDS011;45778;51.142;3.732;2023-06-05T14:46:54;6.18;;;3.70;;
59922;SDS011;45778;51.142;3.732;2023-06-05T14:49:23;4.63;;;3.95;;
59922;SDS011;45778;51.142;3.732;2023-06-05T14:51:50;7.32;;;4.20;;
59922;SDS011;45778;51.142;3.732;2023-06-05T14:54:15;6.07;;;3.85;;
59922;SDS011;45778;51.142;3.732;2023-06-05T14:56:41;8.30;;;3.63;;
59922;SDS011;45778;51.142;3.732;2023-06-05T14:59:08;6.20;;;4.10;;
59922;SDS011;45778;51.142;3.732;2023-06-05T15:01:33;13.35;;;3.85;;
59922;SDS011;45778;51.142;3.732;2023-06-05T15:03:59;9.70;;;4.95;;
59922;SDS011;45778;51.142;3.732;2023-06-05T15:06:24;16.50;;;4.60;;
59922;SDS011;45778;51.142;3.732;2023-06-05T15:08:50;5.05;;;3.88;;
59922;SDS011;45778;51.142;3.732;2023-06-05T15:11:16;8.00;;;4.90;;
59922;SDS011;45778;51.142;3.732;2023-06-05T15:13:42;6.68;;;4.05;;
59922;SDS011;45778;51.142;3.732;2023-06-05T15:16:07;7.05;;;4.88;;
59922;SDS011;45778;51.142;3.732;2023-06-05T15:18:33;9.75;;;4.70;;
59922;SDS011;45778;51.142;3.732;2023-06-05T15:20:59;7.13;;;4.25;;
59922;SDS011;45778;51.142;3.732;2023-06-05T15:23:25;9.02;;;4.18;;
59922;SDS011;45778;51.142;3.732;2023-06-05T15:25:50;8.60;;;4.57;;
59922;SDS011;45778;51.142;3.732;2023-06-05T15:28:16;7.35;;;4.45;;
59922;SDS011;45778;51.142;3.732;2023-06-05T15:30:42;11.73;;;4.90;;
59922;SDS011;45778;51.142;3.732;2023-06-05T15:33:08;9.82;;;4.63;;
59922;SDS011;45778;51.142;3.732;2023-06-05T15:35:35;7.50;;;4.07;;